createdAt,value
2023-08-28T00:01:01.122Z,97215.63
2023-08-28T00:03:32.489Z,97228.84
2023-08-28T00:06:02.773Z,97226.31
2023-08-28T00:08:30.673Z,97236.43
2023-08-28T00:10:58.632Z,97239.88
2023-08-28T00:13:26.714Z,97241.89
2023-08-28T00:15:54.734Z,97237.98
2023-08-28T00:18:23.401Z,97235.48
2023-08-28T00:20:51.535Z,97224.79
2023-08-28T00:23:19.523Z,97227.04
2023-08-28T00:25:47.548Z,97233.10
2023-08-28T00:28:15.588Z,97231.80
2023-08-28T00:30:44.039Z,97230.91
2023-08-28T00:33:12.160Z,97227.84
2023-08-28T00:35:41.320Z,97221.12
2023-08-28T00:38:10.468Z,97224.04
2023-08-28T00:40:41.678Z,97230.48
2023-08-28T00:43:10.009Z,97237.40
2023-08-28T00:45:44.032Z,97243.10
2023-08-28T00:48:14.615Z,97241.58
2023-08-28T00:50:43.393Z,97248.70
2023-08-28T00:53:13.008Z,97261.34
2023-08-28T00:55:41.358Z,97265.05
2023-08-28T00:58:09.342Z,97279.24
2023-08-28T01:00:38.405Z,97288.45
2023-08-28T01:03:06.890Z,97297.96
2023-08-28T01:05:50.178Z,97287.53
2023-08-28T01:08:24.222Z,97279.61
2023-08-28T01:10:58.745Z,97281.75
2023-08-28T01:13:40.798Z,97273.55
2023-08-28T01:16:11.301Z,97283.54
2023-08-28T01:18:39.855Z,97290.55
2023-08-28T01:21:08.934Z,97306.90
2023-08-28T01:28:05.132Z,97313.27
2023-08-28T01:30:33.078Z,97324.12
2023-08-28T01:33:01.487Z,97331.48
2023-08-28T01:35:32.996Z,97329.47
2023-08-28T01:38:38.249Z,97342.67
2023-08-28T01:41:10.264Z,97336.63
2023-08-28T01:43:43.397Z,97349.67
2023-08-28T01:46:12.684Z,97361.79
2023-08-28T01:48:52.305Z,97371.85
2023-08-28T01:51:22.170Z,97369.89
2023-08-28T01:53:51.237Z,97361.27
2023-08-28T01:56:26.691Z,97346.94
2023-08-28T01:58:57.224Z,97338.36
2023-08-28T02:01:27.122Z,97335.30
2023-08-28T02:03:55.650Z,97345.14
2023-08-28T02:06:23.856Z,97349.55
2023-08-28T02:08:53.366Z,97336.84
2023-08-28T02:11:21.352Z,97332.23
2023-08-28T02:13:49.450Z,97330.55
2023-08-28T02:16:21.056Z,97337.33
2023-08-28T02:18:50.322Z,97339.50
2023-08-28T02:21:18.425Z,97339.98
2023-08-28T02:23:46.893Z,97342.85
2023-08-28T02:26:14.850Z,97349.75
2023-08-28T02:28:42.785Z,97355.66
2023-08-28T02:31:10.766Z,97364.76
2023-08-28T02:33:38.767Z,97361.52
2023-08-28T02:36:06.747Z,97359.21
2023-08-28T02:38:34.959Z,97358.86
2023-08-28T02:41:10.774Z,97358.39
2023-08-28T02:43:39.795Z,97362.38
2023-08-28T02:46:07.788Z,97359.92
2023-08-28T02:48:35.876Z,97363.98
2023-08-28T02:51:03.979Z,97369.56
2023-08-28T02:53:32.100Z,97374.38
2023-08-28T02:56:18.788Z,97374.58
2023-08-28T02:58:47.170Z,97384.08
2023-08-28T03:01:15.270Z,97384.66
2023-08-28T03:03:43.409Z,97382.77
2023-08-28T03:06:11.714Z,97377.75
2023-08-28T03:08:39.799Z,97392.92
2023-08-28T03:11:07.736Z,97389.33
2023-08-28T03:13:36.790Z,97379.95
2023-08-28T03:16:05.098Z,97374.78
2023-08-28T03:18:33.304Z,97377.86
2023-08-28T03:21:01.244Z,97384.50
2023-08-28T03:23:29.209Z,97381.16
2023-08-28T03:25:57.200Z,97373.68
2023-08-28T03:28:25.167Z,97374.90
2023-08-28T03:30:57.135Z,97365.13
2023-08-28T03:33:25.319Z,97366.23
2023-08-28T03:35:53.275Z,97366.14
2023-08-28T03:38:21.808Z,97364.21
2023-08-28T03:40:49.963Z,97369.45
2023-08-28T03:43:17.930Z,97372.60
2023-08-28T03:45:46.571Z,97381.16
2023-08-28T03:48:14.879Z,97384.11
2023-08-28T03:50:42.882Z,97381.05
2023-08-28T03:53:10.860Z,97387.86
2023-08-28T03:55:39.246Z,97401.91
2023-08-28T03:58:09.102Z,97405.23
2023-08-28T04:00:37.242Z,97412.39
2023-08-28T04:03:05.783Z,97426.52
2023-08-28T04:05:39.532Z,97433.39
2023-08-28T04:08:07.979Z,97435.45
2023-08-28T04:10:36.126Z,97427.95
2023-08-28T04:13:04.706Z,97416.81
2023-08-28T04:15:33.098Z,97416.50
2023-08-28T04:18:01.282Z,97419.98
2023-08-28T04:20:31.671Z,97421.16
2023-08-28T04:22:59.838Z,97422.89
2023-08-28T04:25:30.579Z,97429.68
2023-08-28T04:27:58.504Z,97433.01
2023-08-28T04:30:28.678Z,97443.42
2023-08-28T04:32:56.822Z,97449.55
2023-08-28T04:35:24.998Z,97450.28
2023-08-28T04:37:53.002Z,97439.77
2023-08-28T04:40:21.064Z,97416.02
2023-08-28T04:42:49.494Z,97409.30
2023-08-28T04:45:18.356Z,97404.42
2023-08-28T04:47:46.364Z,97398.06
2023-08-28T04:50:14.448Z,97384.79
2023-08-28T04:52:44.097Z,97382.07
2023-08-28T04:55:12.444Z,97385.98
2023-08-28T04:57:40.487Z,97387.32
2023-08-28T05:00:09.226Z,97386.39
2023-08-28T05:02:37.333Z,97393.84
2023-08-28T05:05:05.774Z,97391.59
2023-08-28T05:07:35.014Z,97402.09
2023-08-28T05:10:04.222Z,97429.48
2023-08-28T05:12:32.158Z,97440.30
2023-08-28T05:15:00.177Z,97419.90
2023-08-28T05:17:29.201Z,97416.70
2023-08-28T05:19:57.206Z,97419.60
2023-08-28T05:22:25.425Z,97410.70
2023-08-28T05:24:53.410Z,97420.23
2023-08-28T05:27:21.475Z,97417.60
2023-08-28T05:29:52.881Z,97412.95
2023-08-28T05:32:22.071Z,97414.45
2023-08-28T05:34:52.070Z,97399.55
2023-08-28T05:37:21.585Z,97399.73
2023-08-28T05:39:49.606Z,97393.61
2023-08-28T05:42:18.007Z,97393.90
2023-08-28T05:44:46.601Z,97384.33
2023-08-28T05:47:14.710Z,97382.73
2023-08-28T05:49:42.746Z,97382.27
2023-08-28T05:52:11.419Z,97379.04
2023-08-28T05:54:39.384Z,97382.63
2023-08-28T05:57:08.233Z,97375.52
2023-08-28T05:59:36.217Z,97365.27
2023-08-28T06:02:06.002Z,97362.67
2023-08-28T06:04:34.971Z,97370.36
2023-08-28T06:07:03.095Z,97369.88
2023-08-28T06:09:31.236Z,97378.92
2023-08-28T06:11:59.161Z,97380.83
2023-08-28T06:14:27.146Z,97383.73
2023-08-28T06:16:55.095Z,97375.65
2023-08-28T06:19:23.083Z,97366.42
2023-08-28T06:21:51.069Z,97368.64
2023-08-28T06:24:19.036Z,97376.35
2023-08-28T06:26:46.944Z,97380.64
2023-08-28T06:29:17.278Z,97375.35
2023-08-28T06:31:45.619Z,97385.16
2023-08-28T06:34:16.001Z,97397.32
2023-08-28T06:36:46.641Z,97401.99
2023-08-28T06:39:14.629Z,97392.15
2023-08-28T06:41:42.629Z,97383.84
2023-08-28T06:44:10.703Z,97376.95
2023-08-28T06:46:39.095Z,97369.29
2023-08-28T06:49:07.262Z,97357.55
2023-08-28T06:51:35.318Z,97356.17
2023-08-28T06:54:03.937Z,97378.68
2023-08-28T06:56:32.055Z,97399.17
2023-08-28T06:59:00.080Z,97408.09
2023-08-28T07:01:28.108Z,97397.51
2023-08-28T07:03:56.092Z,97394.28
2023-08-28T07:06:24.124Z,97385.84
2023-08-28T07:08:52.202Z,97377.23
2023-08-28T07:11:20.120Z,97379.27
2023-08-28T07:13:48.064Z,97380.04
2023-08-28T07:16:16.029Z,97368.98
2023-08-28T07:18:44.851Z,97377.64
2023-08-28T07:21:12.823Z,97382.82
2023-08-28T07:23:40.803Z,97376.62
2023-08-28T07:26:08.794Z,97386.04
2023-08-28T07:28:36.765Z,97390.20
2023-08-28T07:31:05.311Z,97397.70
2023-08-28T07:33:33.357Z,97397.11
2023-08-28T07:36:01.285Z,97393.69
2023-08-28T07:38:29.224Z,97386.04
2023-08-28T07:40:57.182Z,97384.80
2023-08-28T07:43:25.254Z,97389.73
2023-08-28T07:45:53.446Z,97390.08
2023-08-28T07:48:21.511Z,97386.60
2023-08-28T07:50:49.598Z,97387.11
2023-08-28T07:53:17.871Z,97389.05
2023-08-28T07:55:45.930Z,97382.97
2023-08-28T07:58:14.892Z,97380.65
2023-08-28T08:00:46.049Z,97377.85
2023-08-28T08:03:14.071Z,97378.66
2023-08-28T08:05:42.689Z,97377.70
2023-08-28T08:08:39.867Z,97370.56
2023-08-28T08:11:07.799Z,97364.84
2023-08-28T08:13:35.831Z,97366.00
2023-08-28T08:16:05.830Z,97368.80
2023-08-28T08:18:34.097Z,97363.85
2023-08-28T08:21:02.193Z,97365.55
2023-08-28T08:23:30.185Z,97359.41
2023-08-28T08:25:59.761Z,97356.64
2023-08-28T08:28:27.696Z,97356.76
2023-08-28T08:30:56.853Z,97359.91
2023-08-28T08:33:24.981Z,97358.51
2023-08-28T08:35:53.069Z,97355.10
2023-08-28T08:38:24.075Z,97356.11
2023-08-28T08:40:54.206Z,97351.77
2023-08-28T08:43:22.416Z,97356.27
2023-08-28T08:45:52.072Z,97357.15
2023-08-28T08:48:22.796Z,97360.84
2023-08-28T08:50:51.272Z,97363.71
2023-08-28T08:53:29.605Z,97367.37
2023-08-28T08:56:01.384Z,97360.17
2023-08-28T08:58:31.520Z,97359.73
2023-08-28T09:01:00.797Z,97365.27
2023-08-28T09:03:31.188Z,97363.54
2023-08-28T09:06:00.556Z,97363.20
2023-08-28T09:08:30.143Z,97358.46
2023-08-28T09:11:01.923Z,97366.78
2023-08-28T09:13:30.033Z,97363.09
2023-08-28T09:15:58.763Z,97363.64
2023-08-28T09:18:27.687Z,97372.30
2023-08-28T09:21:12.555Z,97374.15
2023-08-28T09:23:51.069Z,97368.34
2023-08-28T09:26:21.780Z,97366.33
2023-08-28T09:29:05.293Z,97364.89
2023-08-28T09:31:38.984Z,97357.89
2023-08-28T09:34:09.466Z,97353.73
2023-08-28T09:37:01.594Z,97355.98
2023-08-28T09:40:36.225Z,97351.08
2023-08-28T09:43:14.611Z,97351.16
2023-08-28T09:45:44.533Z,97347.83
2023-08-28T09:48:13.190Z,97344.67
2023-08-28T09:50:43.037Z,97341.56
2023-08-28T09:53:13.454Z,97341.81
2023-08-28T09:55:50.975Z,97336.83
2023-08-28T09:58:20.279Z,97333.10
2023-08-28T10:00:49.059Z,97327.26
2023-08-28T10:03:18.163Z,97323.59
2023-08-28T10:05:47.348Z,97319.86
2023-08-28T10:08:18.790Z,97314.36
2023-08-28T10:10:52.070Z,97319.61
2023-08-28T10:13:23.608Z,97319.91
2023-08-28T10:15:59.356Z,97316.80
2023-08-28T10:18:36.117Z,97313.71
2023-08-28T10:21:04.620Z,97320.90
2023-08-28T10:23:34.383Z,97327.10
2023-08-28T10:26:07.612Z,97328.10
2023-08-28T10:28:37.122Z,97324.64
2023-08-28T10:31:06.495Z,97317.69
2023-08-28T10:33:37.931Z,97311.97
2023-08-28T10:36:11.758Z,97308.91
2023-08-28T10:38:56.495Z,97305.06
2023-08-28T10:41:27.484Z,97298.57
2023-08-28T10:43:57.375Z,97295.11
2023-08-28T10:46:29.155Z,97286.66
2023-08-28T10:49:01.275Z,97285.80
2023-08-28T10:51:37.925Z,97281.95
2023-08-28T10:54:10.823Z,97284.34
2023-08-28T10:56:40.576Z,97281.16
2023-08-28T10:59:25.791Z,97281.09
2023-08-28T11:01:53.966Z,97283.77
2023-08-28T11:04:23.642Z,97289.40
2023-08-28T11:06:52.035Z,97299.58
2023-08-28T11:09:29.036Z,97295.60
2023-08-28T11:12:00.356Z,97295.77
2023-08-28T11:14:58.920Z,97292.59
2023-08-28T11:17:27.159Z,97284.00
2023-08-28T11:19:57.154Z,97287.24
2023-08-28T11:22:43.595Z,97285.77
2023-08-28T11:25:14.028Z,97281.39
2023-08-28T11:27:48.492Z,97281.38
2023-08-28T11:30:21.749Z,97284.08
2023-08-28T11:32:54.251Z,97273.84
2023-08-28T11:35:24.230Z,97275.16
2023-08-28T11:37:54.934Z,97275.60
2023-08-28T11:40:27.061Z,97276.80
2023-08-28T11:43:09.481Z,97276.61
2023-08-28T11:45:37.589Z,97279.89
2023-08-28T11:48:07.435Z,97277.56
2023-08-28T11:50:35.961Z,97272.92
2023-08-28T11:53:04.448Z,97270.15
2023-08-28T11:55:35.330Z,97272.79
2023-08-28T11:58:07.064Z,97269.25
2023-08-28T12:00:35.240Z,97264.95
2023-08-28T12:03:07.883Z,97264.63
2023-08-28T12:05:36.664Z,97259.44
2023-08-28T12:08:05.678Z,97256.12
2023-08-28T12:10:33.863Z,97247.75
2023-08-28T12:13:02.185Z,97246.73
2023-08-28T12:15:34.673Z,97247.23
2023-08-28T12:18:04.951Z,97248.84
2023-08-28T12:20:35.157Z,97242.65
2023-08-28T12:23:03.901Z,97246.45
2023-08-28T12:25:43.201Z,97240.27
2023-08-28T12:28:12.239Z,97238.41
2023-08-28T12:30:41.534Z,97223.93
2023-08-28T12:33:10.235Z,97219.02
2023-08-28T12:35:40.317Z,97211.32
2023-08-28T12:38:08.767Z,97205.64
2023-08-28T12:40:38.103Z,97201.25
2023-08-28T12:43:12.733Z,97200.77
2023-08-28T12:45:41.427Z,97202.55
2023-08-28T12:48:09.540Z,97206.84
2023-08-28T12:50:37.910Z,97204.91
2023-08-28T12:53:06.421Z,97210.39
2023-08-28T12:55:34.965Z,97215.34
2023-08-28T12:58:03.148Z,97213.95
2023-08-28T13:00:31.215Z,97212.77
2023-08-28T13:02:59.435Z,97213.00
2023-08-28T13:05:27.546Z,97213.70
2023-08-28T13:07:55.527Z,97208.98
2023-08-28T13:10:23.547Z,97199.17
2023-08-28T13:12:51.560Z,97201.76
2023-08-28T13:15:19.530Z,97197.38
2023-08-28T13:18:15.031Z,97192.58
2023-08-28T13:20:45.251Z,97199.62
2023-08-28T13:23:13.260Z,97195.17
2023-08-28T13:25:42.071Z,97187.11
2023-08-28T13:28:10.040Z,97188.63
2023-08-28T13:30:39.373Z,97193.27
2023-08-28T13:33:07.727Z,97191.88
2023-08-28T13:35:37.440Z,97191.16
2023-08-28T13:38:05.736Z,97188.83
2023-08-28T13:40:33.754Z,97186.73
2023-08-28T13:43:04.107Z,97187.11
2023-08-28T13:45:34.058Z,97185.05
2023-08-28T13:48:02.284Z,97180.82
2023-08-28T13:50:30.332Z,97181.14
2023-08-28T13:52:58.394Z,97178.61
2023-08-28T13:55:26.544Z,97180.54
2023-08-28T13:57:54.574Z,97175.35
2023-08-28T14:00:23.176Z,97171.93
2023-08-28T14:02:51.135Z,97167.11
2023-08-28T14:05:19.183Z,97167.50
2023-08-28T14:07:47.208Z,97157.98
2023-08-28T14:10:17.377Z,97160.95
2023-08-28T14:12:45.312Z,97162.17
2023-08-28T14:15:13.487Z,97159.73
2023-08-28T14:17:41.629Z,97161.05
2023-08-28T14:20:10.396Z,97158.67
2023-08-28T14:22:38.393Z,97167.10
2023-08-28T14:25:06.894Z,97163.23
2023-08-28T14:27:42.437Z,97158.90
2023-08-28T14:30:20.715Z,97160.28
2023-08-28T14:32:48.823Z,97156.05
2023-08-28T14:35:17.085Z,97162.32
2023-08-28T14:37:45.245Z,97156.98
2023-08-28T14:40:13.181Z,97160.19
2023-08-28T14:42:41.163Z,97155.07
2023-08-28T14:45:09.622Z,97153.06
2023-08-28T14:47:37.575Z,97149.97
2023-08-28T14:50:06.853Z,97145.72
2023-08-28T14:52:34.805Z,97145.30
2023-08-28T14:55:04.650Z,97149.70
2023-08-28T14:57:32.718Z,97147.34
2023-08-28T15:00:00.751Z,97142.85
2023-08-28T15:02:29.395Z,97144.47
2023-08-28T15:04:57.574Z,97147.63
2023-08-28T15:07:25.608Z,97148.23
2023-08-28T15:09:53.706Z,97146.73
2023-08-28T15:12:22.271Z,97145.86
2023-08-28T15:14:50.263Z,97146.02
2023-08-28T15:17:18.232Z,97148.14
2023-08-28T15:19:46.225Z,97148.59
2023-08-28T15:22:14.257Z,97145.90
2023-08-28T15:24:42.225Z,97139.16
2023-08-28T15:27:10.696Z,97136.89
2023-08-28T15:29:38.625Z,97133.81
2023-08-28T15:32:06.697Z,97136.20
2023-08-28T15:34:34.647Z,97133.48
2023-08-28T15:37:02.577Z,97120.41
2023-08-28T15:39:30.543Z,97109.63
2023-08-28T15:41:59.194Z,97109.48
2023-08-28T15:44:27.980Z,97111.55
2023-08-28T15:46:55.934Z,97099.53
2023-08-28T15:49:23.934Z,97097.48
2023-08-28T15:51:52.244Z,97101.95
2023-08-28T15:54:20.309Z,97097.58
2023-08-28T15:56:48.519Z,97099.41
2023-08-28T15:59:17.046Z,97090.39
2023-08-28T16:01:47.071Z,97089.63
2023-08-28T16:04:16.774Z,97086.61
2023-08-28T16:06:44.755Z,97086.05
2023-08-28T16:09:13.645Z,97088.31
2023-08-28T16:11:52.038Z,97088.14
2023-08-28T16:14:19.998Z,97094.88
2023-08-28T16:16:48.000Z,97093.37
2023-08-28T16:19:16.026Z,97095.75
2023-08-28T16:21:44.019Z,97089.60
2023-08-28T16:24:14.837Z,97094.60
2023-08-28T16:26:42.929Z,97095.05
2023-08-28T16:29:11.083Z,97098.53
2023-08-28T16:31:39.065Z,97099.42
2023-08-28T16:34:07.166Z,97092.61
2023-08-28T16:36:35.167Z,97092.16
2023-08-28T16:39:03.885Z,97096.55
2023-08-28T16:41:32.098Z,97094.70
2023-08-28T16:44:00.400Z,97091.15
2023-08-28T16:46:28.580Z,97089.68
2023-08-28T16:48:57.383Z,97087.44
2023-08-28T16:51:25.550Z,97083.34
2023-08-28T16:53:53.810Z,97079.23
2023-08-28T16:56:21.969Z,97075.13
2023-08-28T16:58:50.447Z,97077.52
2023-08-28T17:01:18.561Z,97079.10
2023-08-28T17:03:46.743Z,97074.66
2023-08-28T17:06:14.970Z,97077.22
2023-08-28T17:08:43.126Z,97079.18
2023-08-28T17:11:11.321Z,97078.33
2023-08-28T17:13:40.368Z,97070.08
2023-08-28T17:16:08.352Z,97072.58
2023-08-28T17:18:38.230Z,97066.99
2023-08-28T17:21:06.361Z,97067.83
2023-08-28T17:23:34.399Z,97070.63
2023-08-28T17:26:02.440Z,97076.20
2023-08-28T17:28:30.414Z,97077.61
2023-08-28T17:30:59.979Z,97077.92
2023-08-28T17:33:28.192Z,97077.31
2023-08-28T17:35:56.264Z,97077.25
2023-08-28T17:38:30.321Z,97080.67
2023-08-28T17:41:00.831Z,97086.91
2023-08-28T17:43:29.687Z,97092.81
2023-08-28T17:45:59.223Z,97084.69
2023-08-28T17:48:27.215Z,97083.72
2023-08-28T17:50:55.891Z,97085.87
2023-08-28T17:53:23.957Z,97088.16
2023-08-28T17:55:53.797Z,97086.52
2023-08-28T17:58:22.192Z,97077.36
2023-08-28T18:00:53.729Z,97082.11
2023-08-28T18:03:37.137Z,97086.34
2023-08-28T18:06:07.683Z,97084.78
2023-08-28T18:08:35.900Z,97083.94
2023-08-28T18:11:04.957Z,97081.67
2023-08-28T18:15:01.590Z,97082.83
2023-08-28T18:19:11.132Z,97071.88
2023-08-28T18:22:43.545Z,97068.72
2023-08-28T18:25:29.026Z,97069.27
2023-08-28T18:28:06.971Z,97068.86
2023-08-28T18:30:36.960Z,97067.62
2023-08-28T18:33:05.649Z,97061.27
2023-08-28T18:35:36.915Z,97062.66
2023-08-28T18:38:06.592Z,97054.75
2023-08-28T18:41:06.541Z,97051.17
2023-08-28T18:43:38.162Z,97049.15
2023-08-28T18:46:06.712Z,97050.58
2023-08-28T18:52:53.954Z,97040.52
2023-08-28T18:55:32.802Z,97029.76
2023-08-28T18:58:10.657Z,97019.98
2023-08-28T19:00:58.858Z,97012.38
2023-08-28T19:03:27.457Z,97007.20
2023-08-28T19:05:56.365Z,97010.89
2023-08-28T19:08:24.418Z,97010.69
2023-08-28T19:10:54.577Z,97005.14
2023-08-28T19:13:22.640Z,97000.96
2023-08-28T19:15:51.340Z,96997.80
2023-08-28T19:18:21.701Z,96988.00
2023-08-28T19:21:01.114Z,96982.05
2023-08-28T19:23:31.138Z,96970.80
2023-08-28T19:30:07.019Z,96953.60
2023-08-28T19:32:38.707Z,96960.12
2023-08-28T19:35:13.390Z,96961.89
2023-08-28T19:37:42.683Z,96958.20
2023-08-28T19:40:13.514Z,96959.59
2023-08-28T19:42:43.244Z,96951.25
2023-08-28T19:45:12.503Z,96940.52
2023-08-28T19:47:40.668Z,96931.91
2023-08-28T19:50:09.204Z,96922.77
2023-08-28T19:52:39.295Z,96920.05
2023-08-28T19:55:08.457Z,96910.40
2023-08-28T19:57:38.455Z,96896.16
2023-08-28T20:00:07.564Z,96894.92
2023-08-28T20:02:36.924Z,96902.59
2023-08-28T20:05:05.995Z,96892.17
2023-08-28T20:07:34.767Z,96887.46
2023-08-28T20:10:02.891Z,96883.91
2023-08-28T20:12:30.885Z,96876.54
2023-08-28T20:14:58.973Z,96879.52
2023-08-28T20:17:28.035Z,96878.02
2023-08-28T20:19:56.294Z,96873.17
2023-08-28T20:22:24.415Z,96879.42
2023-08-28T20:24:52.395Z,96883.10
2023-08-28T20:27:20.438Z,96880.80
2023-08-28T20:29:48.521Z,96874.47
2023-08-28T20:32:16.883Z,96871.43
2023-08-28T20:34:45.007Z,96864.34
2023-08-28T20:37:12.958Z,96867.98
2023-08-28T20:39:40.930Z,96867.09
2023-08-28T20:42:08.890Z,96868.84
2023-08-28T20:44:39.204Z,96862.10
2023-08-28T20:47:07.242Z,96851.19
2023-08-28T20:49:37.183Z,96840.95
2023-08-28T20:52:05.677Z,96828.29
2023-08-28T20:54:33.616Z,96822.43
2023-08-28T20:57:01.553Z,96809.95
2023-08-28T20:59:29.732Z,96805.41
2023-08-28T21:01:57.611Z,96799.88
2023-08-28T21:04:25.610Z,96797.37
2023-08-28T21:06:53.543Z,96795.98
2023-08-28T21:09:21.544Z,96800.27
2023-08-28T21:11:49.512Z,96802.52
2023-08-28T21:14:17.450Z,96803.90
2023-08-28T21:16:45.641Z,96807.24
2023-08-28T21:19:27.179Z,96814.35
2023-08-28T21:21:55.667Z,96811.23
2023-08-28T21:24:23.768Z,96809.38
2023-08-28T21:26:51.724Z,96811.23
2023-08-28T21:29:19.652Z,96810.81
2023-08-28T21:31:49.638Z,96810.02
2023-08-28T21:34:18.029Z,96815.70
2023-08-28T21:36:45.984Z,96813.43
2023-08-28T21:39:14.109Z,96812.71
2023-08-28T21:41:42.043Z,96804.34
2023-08-28T21:44:10.648Z,96800.90
2023-08-28T21:46:38.714Z,96795.28
2023-08-28T21:49:25.758Z,96791.37
2023-08-28T21:52:12.369Z,96783.08
2023-08-28T21:55:00.056Z,96785.95
2023-08-28T21:57:46.906Z,96786.59
2023-08-28T22:00:38.012Z,96788.45
2023-08-28T22:03:24.580Z,96794.08
2023-08-28T22:06:11.403Z,96802.36
2023-08-28T22:08:39.687Z,96811.18
2023-08-28T22:11:26.214Z,96814.94
2023-08-28T22:13:57.561Z,96811.73
2023-08-28T22:16:25.605Z,96807.08
2023-08-28T22:18:54.139Z,96804.59
2023-08-28T22:21:22.099Z,96798.02
2023-08-28T22:23:50.059Z,96787.71
2023-08-28T22:26:18.219Z,96778.59
2023-08-28T22:28:46.161Z,96771.87
2023-08-28T22:31:14.197Z,96770.73
2023-08-28T22:33:42.105Z,96762.37
2023-08-28T22:36:11.679Z,96751.85
2023-08-28T22:38:40.745Z,96745.38
2023-08-28T22:41:08.825Z,96743.52
2023-08-28T22:43:36.780Z,96737.73
2023-08-28T22:46:04.781Z,96738.30
2023-08-28T22:48:32.899Z,96739.31
2023-08-28T22:51:01.443Z,96738.07
2023-08-28T22:53:29.458Z,96732.21
2023-08-28T22:55:57.451Z,96733.17
2023-08-28T22:58:25.565Z,96737.23
2023-08-28T23:00:53.620Z,96738.84
2023-08-28T23:03:21.665Z,96741.20
2023-08-28T23:05:49.950Z,96741.98
2023-08-28T23:08:17.925Z,96743.48
2023-08-28T23:10:46.093Z,96746.86
2023-08-28T23:13:14.074Z,96743.27
2023-08-28T23:15:46.655Z,96743.98
2023-08-28T23:18:16.501Z,96741.88
2023-08-28T23:20:44.747Z,96744.13
2023-08-28T23:23:12.902Z,96743.98
2023-08-28T23:25:40.868Z,96744.85
2023-08-28T23:28:09.566Z,96747.42
2023-08-28T23:30:37.666Z,96751.02
2023-08-28T23:33:05.807Z,96750.70
2023-08-28T23:35:33.791Z,96746.95
2023-08-28T23:38:02.205Z,96747.73
2023-08-28T23:40:32.008Z,96741.40
2023-08-28T23:43:00.050Z,96745.55
2023-08-28T23:45:27.988Z,96747.52
2023-08-28T23:47:55.968Z,96746.50
2023-08-28T23:50:23.951Z,96743.05
2023-08-28T23:52:52.241Z,96734.70
2023-08-28T23:55:20.246Z,96732.75
2023-08-28T23:57:48.156Z,96739.30
